createdAt,value
2019-03-10T00:00:21.386Z,3.80
2019-03-10T00:01:21.410Z,4.10
2019-03-10T00:02:21.400Z,3.60
2019-03-10T00:03:21.349Z,3.80
2019-03-10T00:04:21.346Z,4.30
2019-03-10T00:05:21.338Z,3.80
2019-03-10T00:06:21.316Z,4.50
2019-03-10T00:07:21.318Z,4.40
2019-03-10T00:08:21.323Z,4.30
2019-03-10T00:09:21.305Z,4.10
2019-03-10T00:10:21.265Z,4.10
2019-03-10T00:11:21.279Z,4.30
2019-03-10T00:12:21.273Z,4.90
2019-03-10T00:13:21.285Z,4.50
2019-03-10T00:14:21.258Z,4.20
2019-03-10T00:15:21.235Z,4.70
2019-03-10T00:16:21.204Z,4.70
2019-03-10T00:17:21.217Z,4.30
2019-03-10T00:18:21.298Z,4.70
2019-03-10T00:19:21.222Z,4.10
2019-03-10T00:20:21.184Z,3.70
2019-03-10T00:21:21.150Z,3.70
2019-03-10T00:22:21.180Z,3.90
2019-03-10T00:23:21.180Z,4.20
2019-03-10T00:24:21.122Z,4.10
2019-03-10T00:25:21.127Z,4.20
2019-03-10T00:26:21.222Z,4.10
2019-03-10T00:27:21.092Z,4.00
2019-03-10T00:28:21.098Z,3.90
2019-03-10T00:29:21.080Z,3.80
2019-03-10T00:30:21.066Z,4.40
2019-03-10T00:31:21.039Z,4.00
2019-03-10T00:32:21.026Z,4.00
2019-03-10T00:33:21.042Z,4.00
2019-03-10T00:34:21.053Z,3.80
2019-03-10T00:35:20.996Z,3.50
2019-03-10T00:36:20.977Z,3.80
2019-03-10T00:37:20.984Z,4.00
2019-03-10T00:38:20.985Z,3.60
2019-03-10T00:39:20.952Z,3.90
2019-03-10T00:40:20.939Z,3.60
2019-03-10T00:41:20.930Z,3.70
2019-03-10T00:42:20.932Z,3.80
2019-03-10T00:43:20.948Z,4.30
2019-03-10T00:44:20.894Z,3.60
2019-03-10T00:45:20.882Z,3.70
2019-03-10T00:46:20.873Z,3.70
2019-03-10T00:47:20.865Z,3.90
2019-03-10T00:48:20.926Z,3.60
2019-03-10T00:49:20.888Z,3.60
2019-03-10T00:50:20.827Z,3.30
2019-03-10T00:51:20.823Z,3.60
2019-03-10T00:52:20.820Z,4.10
2019-03-10T00:53:20.793Z,3.60
2019-03-10T00:54:20.862Z,3.50
2019-03-10T00:55:20.788Z,3.70
2019-03-10T00:56:20.790Z,3.60
2019-03-10T00:57:20.755Z,3.70
2019-03-10T00:58:20.740Z,3.70
2019-03-10T00:59:20.731Z,4.20
2019-03-10T01:00:20.744Z,3.80
2019-03-10T01:01:20.703Z,4.30
2019-03-10T01:02:20.733Z,4.10
2019-03-10T01:03:20.725Z,3.90
2019-03-10T01:04:20.673Z,4.50
2019-03-10T01:05:20.690Z,4.00
2019-03-10T01:06:20.648Z,4.00
2019-03-10T01:07:20.636Z,3.80
2019-03-10T01:08:20.655Z,4.20
2019-03-10T01:09:20.650Z,3.80
2019-03-10T01:10:20.663Z,4.30
2019-03-10T01:11:20.595Z,3.90
2019-03-10T01:12:20.589Z,4.10
2019-03-10T01:13:20.573Z,4.10
2019-03-10T01:14:20.588Z,4.20
2019-03-10T01:15:20.585Z,3.50
2019-03-10T01:16:20.585Z,3.80
2019-03-10T01:17:20.528Z,3.80
2019-03-10T01:18:20.516Z,4.10
2019-03-10T01:19:20.510Z,3.70
2019-03-10T01:20:20.537Z,3.60
2019-03-10T01:21:20.486Z,3.70
2019-03-10T01:22:20.522Z,3.60
2019-03-10T01:23:20.490Z,3.20
2019-03-10T01:24:20.460Z,4.00
2019-03-10T01:25:20.488Z,3.50
2019-03-10T01:26:20.433Z,3.10
2019-03-10T01:27:20.428Z,3.80
2019-03-10T01:28:20.413Z,4.40
2019-03-10T01:29:20.429Z,3.70
2019-03-10T01:30:20.429Z,3.50
2019-03-10T01:31:20.385Z,3.80
2019-03-10T01:32:20.364Z,3.00
2019-03-10T01:33:20.356Z,3.40
2019-03-10T01:34:20.350Z,3.40
2019-03-10T01:35:20.357Z,4.20
2019-03-10T01:36:20.361Z,4.10
2019-03-10T01:37:20.310Z,3.90
2019-03-10T01:38:20.299Z,3.60
2019-03-10T01:39:20.291Z,4.20
2019-03-10T01:40:20.316Z,4.00
2019-03-10T01:41:20.268Z,3.90
2019-03-10T01:42:20.267Z,3.80
2019-03-10T01:43:20.247Z,4.20
2019-03-10T01:44:20.233Z,4.50
2019-03-10T01:45:20.222Z,4.70
2019-03-10T01:46:20.238Z,4.50
2019-03-10T01:47:20.247Z,4.90
2019-03-10T01:48:20.206Z,4.50
2019-03-10T01:49:20.256Z,4.70
2019-03-10T01:50:20.168Z,4.50
2019-03-10T01:51:20.190Z,4.40
2019-03-10T01:52:20.159Z,5.10
2019-03-10T01:53:25.527Z,5.90
2019-03-10T01:54:21.237Z,5.20
2019-03-10T01:55:20.126Z,4.90
2019-03-10T01:56:20.382Z,4.80
2019-03-10T01:57:20.180Z,4.10
2019-03-10T01:58:20.107Z,4.40
2019-03-10T01:59:20.079Z,4.60
2019-03-10T02:00:20.058Z,4.30
2019-03-10T02:01:20.078Z,4.40
2019-03-10T02:02:25.805Z,4.00
2019-03-10T02:03:21.033Z,4.10
2019-03-10T02:04:20.048Z,4.00
2019-03-10T02:05:20.007Z,4.30
2019-03-10T02:06:20.022Z,4.30
2019-03-10T02:07:20.008Z,4.30
2019-03-10T02:08:19.970Z,4.00
2019-03-10T02:09:20.004Z,4.20
2019-03-10T02:10:19.948Z,4.60
2019-03-10T02:11:19.944Z,4.80
2019-03-10T02:12:19.985Z,4.50
2019-03-10T02:13:19.915Z,4.00
2019-03-10T02:14:19.905Z,3.90
2019-03-10T02:15:19.898Z,4.40
2019-03-10T02:16:19.887Z,4.30
2019-03-10T02:17:19.889Z,4.00
2019-03-10T02:18:19.888Z,4.20
2019-03-10T02:19:19.854Z,4.30
2019-03-10T02:20:19.853Z,3.80
2019-03-10T02:21:19.853Z,4.20
2019-03-10T02:22:19.818Z,4.40
2019-03-10T02:23:19.841Z,4.20
2019-03-10T02:24:23.647Z,3.70
2019-03-10T02:25:19.786Z,4.50
2019-03-10T02:26:19.772Z,4.70
2019-03-10T02:27:19.770Z,5.10
2019-03-10T02:28:19.834Z,4.60
2019-03-10T02:29:19.794Z,3.80
2019-03-10T02:30:19.766Z,4.40
2019-03-10T02:31:19.726Z,3.70
2019-03-10T02:32:19.797Z,3.90
2019-03-10T02:33:19.724Z,3.80
2019-03-10T02:34:19.690Z,3.80
2019-03-10T02:35:19.704Z,4.00
2019-03-10T02:36:19.666Z,4.20
2019-03-10T02:37:19.661Z,4.30
2019-03-10T02:38:19.788Z,4.50
2019-03-10T02:39:19.632Z,4.10
2019-03-10T02:40:19.641Z,4.10
2019-03-10T02:41:19.608Z,4.90
2019-03-10T02:42:19.597Z,3.80
2019-03-10T02:43:19.664Z,4.40
2019-03-10T02:44:19.584Z,4.70
2019-03-10T02:45:19.576Z,5.20
2019-03-10T02:46:19.556Z,4.60
2019-03-10T02:47:19.544Z,3.80
2019-03-10T02:48:19.560Z,3.80
2019-03-10T02:49:19.548Z,3.70
2019-03-10T02:50:19.525Z,3.80
2019-03-10T02:51:19.501Z,4.20
2019-03-10T02:52:19.489Z,4.00
2019-03-10T02:53:19.511Z,3.90
2019-03-10T02:54:19.467Z,4.20
2019-03-10T02:55:19.476Z,4.10
2019-03-10T02:56:19.450Z,4.00
2019-03-10T02:57:19.439Z,4.30
2019-03-10T02:58:19.424Z,4.30
2019-03-10T02:59:19.465Z,4.40
2019-03-10T03:00:19.396Z,4.00
2019-03-10T03:01:19.408Z,4.40
2019-03-10T03:02:19.383Z,4.70
2019-03-10T03:03:19.372Z,4.00
2019-03-10T03:04:19.396Z,3.90
2019-03-10T03:05:19.349Z,4.40
2019-03-10T03:06:19.331Z,4.10
2019-03-10T03:07:19.349Z,3.80
2019-03-10T03:08:19.322Z,4.10
2019-03-10T03:09:19.322Z,4.20
2019-03-10T03:10:19.325Z,4.50
2019-03-10T03:11:19.276Z,4.30
2019-03-10T03:12:19.284Z,4.10
2019-03-10T03:13:19.350Z,4.30
2019-03-10T03:14:19.248Z,4.50
2019-03-10T03:15:19.264Z,4.40
2019-03-10T03:16:19.236Z,5.30
2019-03-10T03:17:19.208Z,5.50
2019-03-10T03:18:19.213Z,5.30
2019-03-10T03:19:19.225Z,5.30
2019-03-10T03:20:19.222Z,5.90
2019-03-10T03:21:19.200Z,6.30
2019-03-10T03:22:19.175Z,5.70
2019-03-10T03:23:19.165Z,5.20
2019-03-10T03:24:19.175Z,4.10
2019-03-10T03:25:19.205Z,4.40
2019-03-10T03:26:19.125Z,5.20
2019-03-10T03:27:19.122Z,4.80
2019-03-10T03:28:19.117Z,5.20
2019-03-10T03:29:19.140Z,5.40
2019-03-10T03:30:19.142Z,5.50
2019-03-10T03:31:19.083Z,5.50
2019-03-10T03:32:19.062Z,5.10
2019-03-10T03:33:19.095Z,5.00
2019-03-10T03:34:19.089Z,4.90
2019-03-10T03:35:19.072Z,4.70
2019-03-10T03:36:19.036Z,5.00
2019-03-10T03:37:19.001Z,4.40
2019-03-10T03:38:18.989Z,4.20
2019-03-10T03:39:18.971Z,3.80
2019-03-10T03:40:18.955Z,4.00
2019-03-10T03:41:19.112Z,4.10
2019-03-10T03:42:18.989Z,3.80
2019-03-10T03:43:18.957Z,3.70
2019-03-10T03:44:18.939Z,3.90
2019-03-10T03:45:18.902Z,3.60
2019-03-10T03:46:18.947Z,3.60
2019-03-10T03:47:18.917Z,3.60
2019-03-10T03:48:18.898Z,3.80
2019-03-10T03:49:18.870Z,3.70
2019-03-10T03:50:18.854Z,3.70
2019-03-10T03:51:18.871Z,3.70
2019-03-10T03:52:18.822Z,3.30
2019-03-10T03:53:18.833Z,3.60
2019-03-10T03:54:18.821Z,3.50
2019-03-10T03:55:18.857Z,3.60
2019-03-10T03:56:18.814Z,3.50
2019-03-10T03:57:18.770Z,3.80
2019-03-10T03:58:18.770Z,4.20
2019-03-10T03:59:18.823Z,3.80
2019-03-10T04:00:18.749Z,4.10
2019-03-10T04:01:18.750Z,3.90
2019-03-10T04:02:18.731Z,4.00
2019-03-10T04:03:18.710Z,3.80
2019-03-10T04:04:18.715Z,3.60
2019-03-10T04:05:18.693Z,3.90
2019-03-10T04:06:18.696Z,4.30
2019-03-10T04:07:18.657Z,3.90
2019-03-10T04:08:18.684Z,4.00
2019-03-10T04:09:18.702Z,4.00
2019-03-10T04:10:18.684Z,3.80
2019-03-10T04:11:18.644Z,4.10
2019-03-10T04:12:18.629Z,3.90
2019-03-10T04:13:18.613Z,4.80
2019-03-10T04:14:18.585Z,5.60
2019-03-10T04:15:18.580Z,4.60
2019-03-10T04:16:18.650Z,5.20
2019-03-10T04:17:18.570Z,4.90
2019-03-10T04:18:18.537Z,4.90
2019-03-10T04:19:18.527Z,4.50
2019-03-10T04:20:18.515Z,5.00
2019-03-10T04:21:18.543Z,4.60
2019-03-10T04:22:18.500Z,4.70
2019-03-10T04:23:18.497Z,4.40
2019-03-10T04:24:18.484Z,4.70
2019-03-10T04:25:18.478Z,4.70
2019-03-10T04:26:18.526Z,4.60
2019-03-10T04:27:18.440Z,4.80
2019-03-10T04:28:18.429Z,4.50
2019-03-10T04:29:18.429Z,4.10
2019-03-10T04:30:18.406Z,4.50
2019-03-10T04:31:18.432Z,5.00
2019-03-10T04:32:18.392Z,4.10
2019-03-10T04:33:18.382Z,4.80
2019-03-10T04:34:18.422Z,4.40
2019-03-10T04:35:18.404Z,4.10
2019-03-10T04:36:18.351Z,4.60
2019-03-10T04:37:18.381Z,4.40
2019-03-10T04:38:18.333Z,4.60
2019-03-10T04:39:18.318Z,4.50
2019-03-10T04:40:18.313Z,4.20
2019-03-10T04:41:18.284Z,4.70
2019-03-10T04:42:18.312Z,4.40
2019-03-10T04:43:18.271Z,4.20
2019-03-10T04:44:18.321Z,4.20
2019-03-10T04:45:18.243Z,4.60
2019-03-10T04:46:18.246Z,3.80
2019-03-10T04:47:18.281Z,3.50
2019-03-10T04:48:18.237Z,4.00
2019-03-10T04:49:18.212Z,4.00
2019-03-10T04:50:18.190Z,4.70
2019-03-10T04:51:18.175Z,5.00
2019-03-10T04:52:18.167Z,5.60
2019-03-10T04:53:18.191Z,7.20
2019-03-10T04:54:18.148Z,6.80
2019-03-10T04:55:18.162Z,4.80
2019-03-10T04:56:18.211Z,3.40
2019-03-10T04:57:18.119Z,3.50
2019-03-10T04:58:18.149Z,3.60
2019-03-10T04:59:18.106Z,3.60
2019-03-10T05:00:18.083Z,3.80
2019-03-10T05:01:18.211Z,4.30
2019-03-10T05:02:18.070Z,3.50
2019-03-10T05:03:18.073Z,4.20
2019-03-10T05:04:18.049Z,4.10
2019-03-10T05:05:18.029Z,3.60
2019-03-10T05:06:18.024Z,4.00
2019-03-10T05:07:18.002Z,3.70
2019-03-10T05:08:18.082Z,4.10
2019-03-10T05:09:18.010Z,3.60
2019-03-10T05:10:18.002Z,3.60
2019-03-10T05:11:17.956Z,4.10
2019-03-10T05:12:17.949Z,4.00
2019-03-10T05:13:18.016Z,4.20
2019-03-10T05:14:18.009Z,3.70
2019-03-10T05:15:17.940Z,3.90
2019-03-10T05:16:17.900Z,3.40
2019-03-10T05:17:18.006Z,3.50
2019-03-10T05:18:17.906Z,3.60
2019-03-10T05:19:17.916Z,3.60
2019-03-10T05:20:17.854Z,3.20
2019-03-10T05:21:17.864Z,3.10
2019-03-10T05:22:17.832Z,3.10
2019-03-10T05:23:17.830Z,3.10
2019-03-10T05:24:17.843Z,3.00
2019-03-10T05:25:17.902Z,3.60
2019-03-10T05:26:17.799Z,4.30
2019-03-10T05:27:17.780Z,3.60
2019-03-10T05:28:17.770Z,3.90
2019-03-10T05:29:17.863Z,3.70
2019-03-10T05:30:17.760Z,3.20
2019-03-10T05:31:17.742Z,3.90
2019-03-10T05:32:17.743Z,3.70
2019-03-10T05:33:17.769Z,3.10
2019-03-10T05:34:17.732Z,3.50
2019-03-10T05:35:17.692Z,4.00
2019-03-10T05:36:17.680Z,4.40
2019-03-10T05:37:17.742Z,3.40
2019-03-10T05:38:17.683Z,3.70
2019-03-10T05:39:17.670Z,3.40
2019-03-10T05:40:17.638Z,3.70
2019-03-10T05:41:17.694Z,3.50
2019-03-10T05:42:17.624Z,3.60
2019-03-10T05:43:17.656Z,3.70
2019-03-10T05:44:17.613Z,3.10
2019-03-10T05:45:17.582Z,3.00
2019-03-10T05:46:17.615Z,3.10
2019-03-10T05:47:17.565Z,2.90
2019-03-10T05:48:17.546Z,3.10
2019-03-10T05:49:17.617Z,3.20
2019-03-10T05:50:17.524Z,3.00
2019-03-10T05:51:17.522Z,2.60
2019-03-10T05:52:17.508Z,2.80
2019-03-10T05:53:17.500Z,2.90
2019-03-10T05:54:17.503Z,2.50
2019-03-10T05:55:17.517Z,2.80
2019-03-10T05:56:17.461Z,2.70
2019-03-10T05:57:17.471Z,3.10
2019-03-10T05:58:17.444Z,3.00
2019-03-10T05:59:17.478Z,3.40
2019-03-10T06:00:17.411Z,3.70
2019-03-10T06:01:17.419Z,3.80
2019-03-10T06:02:17.467Z,3.40
2019-03-10T06:03:17.420Z,3.20
2019-03-10T06:04:17.388Z,3.10
2019-03-10T06:05:17.391Z,2.80
2019-03-10T06:06:17.360Z,2.60
2019-03-10T06:07:17.359Z,3.20
2019-03-10T06:08:17.334Z,2.60
2019-03-10T06:09:17.319Z,2.80
2019-03-10T06:10:17.346Z,3.00
2019-03-10T06:11:17.289Z,2.90
2019-03-10T06:12:17.301Z,2.80
2019-03-10T06:13:17.273Z,2.90
2019-03-10T06:14:17.275Z,3.40
2019-03-10T06:15:17.297Z,3.30
2019-03-10T06:16:17.333Z,2.70
2019-03-10T06:17:17.224Z,3.20
2019-03-10T06:18:17.216Z,3.10
2019-03-10T06:19:17.217Z,3.10
2019-03-10T06:20:17.201Z,3.40
2019-03-10T06:21:17.322Z,3.30
2019-03-10T06:22:17.169Z,3.10
2019-03-10T06:23:17.168Z,3.60
2019-03-10T06:24:17.158Z,3.60
2019-03-10T06:25:17.161Z,3.60
2019-03-10T06:26:17.165Z,4.10
2019-03-10T06:27:17.120Z,5.00
2019-03-10T06:28:17.103Z,5.80
2019-03-10T06:29:17.148Z,6.20
2019-03-10T06:30:17.109Z,6.30
2019-03-10T06:31:17.129Z,6.50
2019-03-10T06:32:17.065Z,7.60
2019-03-10T06:33:17.059Z,7.70
2019-03-10T06:34:17.034Z,7.70
2019-03-10T06:35:17.028Z,8.00
2019-03-10T06:36:17.083Z,7.20
2019-03-10T06:37:17.032Z,6.80
2019-03-10T06:38:17.001Z,7.10
2019-03-10T06:39:17.011Z,6.90
2019-03-10T06:40:16.980Z,7.60
2019-03-10T06:41:16.959Z,7.50
2019-03-10T06:42:16.978Z,6.80
2019-03-10T06:43:16.939Z,5.50
2019-03-10T06:44:16.979Z,5.10
2019-03-10T06:45:16.947Z,4.70
2019-03-10T06:46:16.903Z,4.30
2019-03-10T06:47:16.956Z,4.60
2019-03-10T06:48:16.902Z,4.00
2019-03-10T06:49:16.877Z,4.20
2019-03-10T06:50:16.870Z,4.40
2019-03-10T06:51:16.911Z,4.60
2019-03-10T06:52:16.838Z,4.70
2019-03-10T06:53:16.865Z,4.90
2019-03-10T06:54:16.838Z,5.20
2019-03-10T06:55:16.820Z,4.50
2019-03-10T06:56:16.831Z,4.80
2019-03-10T06:57:16.782Z,4.30
2019-03-10T06:58:16.771Z,3.90
2019-03-10T06:59:16.782Z,4.50
2019-03-10T07:00:17.691Z,4.40
2019-03-10T07:01:16.780Z,4.40
2019-03-10T07:02:16.726Z,4.70
2019-03-10T07:03:16.720Z,4.20
2019-03-10T07:04:16.726Z,4.50
2019-03-10T07:05:16.699Z,4.60
2019-03-10T07:06:16.681Z,4.80
2019-03-10T07:07:16.721Z,4.90
2019-03-10T07:08:16.691Z,4.20
2019-03-10T07:09:16.702Z,4.80
2019-03-10T07:10:16.636Z,4.80
2019-03-10T07:11:16.669Z,4.90
2019-03-10T07:12:16.614Z,4.20
2019-03-10T07:13:16.607Z,4.50
2019-03-10T07:14:16.697Z,4.80
2019-03-10T07:15:16.588Z,4.60
2019-03-10T07:16:16.601Z,5.20
2019-03-10T07:17:16.606Z,4.90
2019-03-10T07:18:16.555Z,4.90
2019-03-10T07:19:16.568Z,4.70
2019-03-10T07:20:16.533Z,4.60
2019-03-10T07:21:16.518Z,4.70
2019-03-10T07:22:16.545Z,4.90
2019-03-10T07:23:16.500Z,4.70
2019-03-10T07:24:16.483Z,5.50
2019-03-10T07:25:16.505Z,5.40
2019-03-10T07:26:16.505Z,5.50
2019-03-10T07:27:16.452Z,4.50
2019-03-10T07:28:16.460Z,4.90
2019-03-10T07:29:16.436Z,4.80
2019-03-10T07:30:16.448Z,5.30
2019-03-10T07:31:16.425Z,5.40
2019-03-10T07:32:16.399Z,5.40
2019-03-10T07:33:16.388Z,5.50
2019-03-10T07:34:16.393Z,4.40
2019-03-10T07:35:16.397Z,5.00
2019-03-10T07:36:16.361Z,5.00
2019-03-10T07:37:16.343Z,4.60
2019-03-10T07:38:16.337Z,4.60
2019-03-10T07:39:16.329Z,4.40
2019-03-10T07:40:16.330Z,5.00
2019-03-10T07:41:16.373Z,5.30
2019-03-10T07:42:16.289Z,5.90
2019-03-10T07:43:16.279Z,5.80
2019-03-10T07:44:16.271Z,4.80
2019-03-10T07:45:16.317Z,4.30
2019-03-10T07:46:16.276Z,4.30
2019-03-10T07:47:16.241Z,4.30
2019-03-10T07:48:16.270Z,3.90
2019-03-10T07:49:18.075Z,3.90
2019-03-10T07:50:16.203Z,3.80
2019-03-10T07:51:16.192Z,4.00
2019-03-10T07:52:20.181Z,4.30
2019-03-10T07:53:16.170Z,4.20
2019-03-10T07:54:16.198Z,4.00
2019-03-10T07:55:16.149Z,3.60
2019-03-10T07:56:16.139Z,4.30
2019-03-10T07:57:16.158Z,4.70
2019-03-10T07:58:16.124Z,4.20
2019-03-10T07:59:16.106Z,4.50
2019-03-10T08:00:16.118Z,3.70
2019-03-10T08:01:16.089Z,3.50
2019-03-10T08:02:16.107Z,4.00
2019-03-10T08:03:16.068Z,3.80
2019-03-10T08:04:16.055Z,4.00
2019-03-10T08:05:16.052Z,4.80
2019-03-10T08:06:16.079Z,4.80
2019-03-10T08:07:16.018Z,5.00
2019-03-10T08:08:16.031Z,4.90
2019-03-10T08:09:15.995Z,4.90
2019-03-10T08:10:15.985Z,4.90
2019-03-10T08:11:15.982Z,5.00
2019-03-10T08:12:15.996Z,5.80
2019-03-10T08:13:15.988Z,5.20
2019-03-10T08:14:15.942Z,4.70
2019-03-10T08:15:15.931Z,4.20
2019-03-10T08:16:15.923Z,4.10
2019-03-10T08:17:15.907Z,3.80
2019-03-10T08:18:15.951Z,3.40
2019-03-10T08:19:15.892Z,3.60
2019-03-10T08:20:15.920Z,3.60
2019-03-10T08:21:15.868Z,3.50
2019-03-10T08:22:15.864Z,3.40
2019-03-10T08:23:15.871Z,3.70
2019-03-10T08:24:15.836Z,3.00
2019-03-10T08:25:15.826Z,2.90
2019-03-10T08:26:15.812Z,3.20
2019-03-10T08:27:15.818Z,3.10
2019-03-10T08:28:15.829Z,3.00
2019-03-10T08:29:15.794Z,3.20
2019-03-10T08:30:15.809Z,2.80
2019-03-10T08:31:15.758Z,2.60
2019-03-10T08:32:15.768Z,2.60
2019-03-10T08:33:15.798Z,2.80
2019-03-10T08:34:15.728Z,2.90
2019-03-10T08:35:15.733Z,3.50
2019-03-10T08:36:15.737Z,3.80
2019-03-10T08:37:15.706Z,4.10
2019-03-10T08:38:15.751Z,3.90
2019-03-10T08:39:15.701Z,3.70
2019-03-10T08:40:15.668Z,3.30
2019-03-10T08:41:15.686Z,3.00
2019-03-10T08:42:20.159Z,3.00
2019-03-10T08:43:16.632Z,3.40
2019-03-10T08:44:15.753Z,3.10
2019-03-10T08:45:15.607Z,3.30
2019-03-10T08:46:15.596Z,3.70
2019-03-10T08:47:15.630Z,3.70
2019-03-10T08:48:15.578Z,4.30
2019-03-10T08:49:15.571Z,4.40
2019-03-10T08:50:15.637Z,4.40
2019-03-10T08:51:15.542Z,4.50
2019-03-10T08:52:15.541Z,4.90
2019-03-10T08:53:15.573Z,3.70
2019-03-10T08:54:15.529Z,2.10
2019-03-10T08:55:15.560Z,2.50
2019-03-10T08:56:15.495Z,2.20
2019-03-10T08:57:15.566Z,2.00
2019-03-10T08:58:15.519Z,1.80
2019-03-10T08:59:15.505Z,1.40
2019-03-10T09:00:15.452Z,1.60
2019-03-10T09:01:15.491Z,1.20
2019-03-10T09:02:15.423Z,0.80
2019-03-10T09:03:15.417Z,0.50
2019-03-10T09:04:15.442Z,0.60
2019-03-10T09:05:15.417Z,0.60
2019-03-10T09:06:15.422Z,0.50
2019-03-10T09:07:15.368Z,0.40
2019-03-10T09:08:15.364Z,0.60
2019-03-10T09:09:15.373Z,0.50
2019-03-10T09:10:15.337Z,0.50
2019-03-10T09:11:15.366Z,0.60
2019-03-10T09:12:15.346Z,0.50
2019-03-10T09:13:15.352Z,0.40
2019-03-10T09:14:15.306Z,0.60
2019-03-10T09:15:15.283Z,0.50
2019-03-10T09:16:15.283Z,0.50
2019-03-10T09:17:15.288Z,0.50
2019-03-10T09:18:15.262Z,0.50
2019-03-10T09:19:15.254Z,0.70
2019-03-10T09:20:15.269Z,0.50
2019-03-10T09:21:15.218Z,0.70
2019-03-10T09:22:15.238Z,0.60
2019-03-10T09:23:15.210Z,0.70
2019-03-10T09:24:15.207Z,0.50
2019-03-10T09:25:15.231Z,0.60
2019-03-10T09:26:15.179Z,0.60
2019-03-10T09:27:15.262Z,0.70
2019-03-10T09:28:15.142Z,0.80
2019-03-10T09:29:15.131Z,0.60
2019-03-10T09:30:15.137Z,0.60
2019-03-10T09:31:15.115Z,0.50
2019-03-10T09:32:15.138Z,0.70
2019-03-10T09:33:15.117Z,0.60
2019-03-10T09:34:15.080Z,0.70
2019-03-10T09:35:15.081Z,0.50
2019-03-10T09:36:15.064Z,0.70
2019-03-10T09:37:15.068Z,0.60
2019-03-10T09:38:15.093Z,0.60
2019-03-10T09:39:15.033Z,0.40
2019-03-10T09:40:15.023Z,0.50
2019-03-10T09:41:15.013Z,0.80
2019-03-10T09:42:14.998Z,0.60
2019-03-10T09:43:15.028Z,0.50
2019-03-10T09:44:14.967Z,0.50
2019-03-10T09:45:14.992Z,0.40
2019-03-10T09:46:14.948Z,0.50
2019-03-10T09:47:14.940Z,0.50
2019-03-10T09:48:14.975Z,0.40
2019-03-10T09:49:14.915Z,0.40
2019-03-10T09:50:14.908Z,0.50
2019-03-10T09:51:14.906Z,0.70
2019-03-10T09:52:14.881Z,0.60
2019-03-10T09:53:14.920Z,0.50
2019-03-10T09:54:14.883Z,0.50
2019-03-10T09:55:14.847Z,0.60
2019-03-10T09:56:14.844Z,0.50
2019-03-10T09:57:14.828Z,0.50
2019-03-10T09:58:14.891Z,0.50
2019-03-10T09:59:14.914Z,0.50
2019-03-10T10:00:14.844Z,0.40
2019-03-10T10:01:14.788Z,0.60
2019-03-10T10:02:14.775Z,0.60
2019-03-10T10:03:14.772Z,0.50
2019-03-10T10:04:14.919Z,0.50
2019-03-10T10:05:14.743Z,0.50
2019-03-10T10:06:14.726Z,0.50
2019-03-10T10:07:14.738Z,0.50
2019-03-10T10:08:14.708Z,0.60
2019-03-10T10:09:14.744Z,0.50
2019-03-10T10:10:14.681Z,0.50
2019-03-10T10:11:14.672Z,0.50
2019-03-10T10:12:14.665Z,0.80
2019-03-10T10:13:14.662Z,0.70
2019-03-10T10:14:14.675Z,0.60
2019-03-10T10:15:14.638Z,0.70
2019-03-10T10:16:14.633Z,0.60
2019-03-10T10:17:14.631Z,0.60
2019-03-10T10:18:14.601Z,0.80
2019-03-10T10:19:14.703Z,0.70
2019-03-10T10:20:14.600Z,0.60
2019-03-10T10:21:14.563Z,0.60
2019-03-10T10:22:14.555Z,0.90
2019-03-10T10:23:14.560Z,0.80
2019-03-10T10:24:14.545Z,0.90
2019-03-10T10:25:14.547Z,0.90
2019-03-10T10:26:14.517Z,1.00
2019-03-10T10:27:14.502Z,0.70
2019-03-10T10:28:14.514Z,0.80
2019-03-10T10:29:14.476Z,0.90
2019-03-10T10:30:14.492Z,1.00
2019-03-10T10:31:14.454Z,0.80
2019-03-10T10:32:14.442Z,1.00
2019-03-10T10:33:14.433Z,1.00
2019-03-10T10:34:14.428Z,0.80
2019-03-10T10:35:14.443Z,0.80
2019-03-10T10:36:14.410Z,0.80
2019-03-10T10:37:14.396Z,0.80
2019-03-10T10:38:18.511Z,0.80
2019-03-10T10:39:14.376Z,1.10
2019-03-10T10:40:14.386Z,0.90
2019-03-10T10:41:14.361Z,0.70
2019-03-10T10:42:14.348Z,0.90
2019-03-10T10:43:14.348Z,1.00
2019-03-10T10:44:14.312Z,0.90
2019-03-10T10:45:14.331Z,0.90
2019-03-10T10:46:14.300Z,1.00
2019-03-10T10:47:14.286Z,0.90
2019-03-10T10:48:14.321Z,0.70
2019-03-10T10:49:14.263Z,0.90
2019-03-10T10:50:14.288Z,1.20
2019-03-10T10:51:14.246Z,1.00
2019-03-10T10:52:14.236Z,1.00
2019-03-10T10:53:14.240Z,1.00
2019-03-10T10:54:14.225Z,0.90
2019-03-10T10:55:14.214Z,1.30
2019-03-10T10:56:14.220Z,1.30
2019-03-10T10:57:14.201Z,0.90
2019-03-10T10:58:14.161Z,1.50
2019-03-10T10:59:14.155Z,1.10
2019-03-10T11:00:14.144Z,1.20
2019-03-10T11:01:14.192Z,1.30
2019-03-10T11:02:14.117Z,1.20
2019-03-10T11:03:14.113Z,1.20
2019-03-10T11:04:14.097Z,1.10
2019-03-10T11:05:14.086Z,1.40
2019-03-10T11:06:14.077Z,1.40
2019-03-10T11:07:14.092Z,1.40
2019-03-10T11:08:14.058Z,1.20
2019-03-10T11:09:14.051Z,1.20
2019-03-10T11:10:14.031Z,1.20
2019-03-10T11:11:14.026Z,1.50
2019-03-10T11:12:14.057Z,1.00
2019-03-10T11:13:13.997Z,1.40
2019-03-10T11:14:13.993Z,1.40
2019-03-10T11:15:13.978Z,1.10
2019-03-10T11:16:13.970Z,1.50
2019-03-10T11:17:13.955Z,1.30
2019-03-10T11:18:13.979Z,1.60
2019-03-10T11:19:13.935Z,1.60
2019-03-10T11:20:13.931Z,1.30
2019-03-10T11:21:13.955Z,1.60
2019-03-10T11:22:13.912Z,1.40
2019-03-10T11:23:13.901Z,1.40
2019-03-10T11:24:13.984Z,1.50
2019-03-10T11:25:13.867Z,1.60
2019-03-10T11:26:13.862Z,1.60
2019-03-10T11:27:13.991Z,1.60
2019-03-10T11:28:13.877Z,1.30
2019-03-10T11:29:13.933Z,1.50
2019-03-10T11:30:13.844Z,1.70
2019-03-10T11:31:14.086Z,2.00
2019-03-10T11:32:13.800Z,1.50
2019-03-10T11:33:13.782Z,1.50
2019-03-10T11:34:13.956Z,1.40
2019-03-10T11:35:13.766Z,1.30
2019-03-10T11:36:13.830Z,1.40
2019-03-10T11:37:13.736Z,1.40
2019-03-10T11:38:13.737Z,1.20
2019-03-10T11:39:13.735Z,1.20
2019-03-10T11:40:13.735Z,1.30
2019-03-10T11:41:13.697Z,1.50
2019-03-10T11:42:13.736Z,1.40
2019-03-10T11:43:13.674Z,1.50
2019-03-10T11:44:13.658Z,1.20
2019-03-10T11:45:13.647Z,1.40
2019-03-10T11:46:13.639Z,1.20
2019-03-10T11:47:13.634Z,1.20
2019-03-10T11:48:13.670Z,1.50
2019-03-10T11:49:13.611Z,1.00
2019-03-10T11:50:15.190Z,1.70
2019-03-10T11:51:13.634Z,1.60
2019-03-10T11:52:13.575Z,1.30
2019-03-10T11:53:19.162Z,1.30
2019-03-10T11:54:14.608Z,1.60
2019-03-10T11:55:13.701Z,1.10
2019-03-10T11:56:13.536Z,1.30
2019-03-10T11:57:13.517Z,1.30
2019-03-10T11:58:13.519Z,1.20
2019-03-10T11:59:13.513Z,1.50
2019-03-10T12:00:13.517Z,1.20
2019-03-10T12:01:13.474Z,1.40
2019-03-10T12:02:16.426Z,1.50
2019-03-10T12:03:13.458Z,1.30
2019-03-10T12:04:13.481Z,1.30
2019-03-10T12:05:13.505Z,1.40
2019-03-10T12:06:13.483Z,1.60
2019-03-10T12:07:13.406Z,1.20
2019-03-10T12:08:13.398Z,1.60
2019-03-10T12:09:13.445Z,1.50
2019-03-10T12:10:13.373Z,1.60
2019-03-10T12:11:13.361Z,1.30
2019-03-10T12:12:13.425Z,1.40
2019-03-10T12:13:13.403Z,1.70
2019-03-10T12:14:13.356Z,1.30
2019-03-10T12:15:13.337Z,1.40
2019-03-10T12:16:13.371Z,1.50
2019-03-10T12:17:13.320Z,1.40
2019-03-10T12:18:13.365Z,1.60
2019-03-10T12:19:13.291Z,1.60
2019-03-10T12:20:13.311Z,1.30
2019-03-10T12:21:13.256Z,1.60
2019-03-10T12:22:13.252Z,1.40
2019-03-10T12:23:13.262Z,1.30
2019-03-10T12:24:13.257Z,2.00
2019-03-10T12:25:13.211Z,1.60
2019-03-10T12:26:13.208Z,2.10
2019-03-10T12:27:13.204Z,2.30
2019-03-10T12:28:13.261Z,2.10
2019-03-10T12:29:13.177Z,1.90
2019-03-10T12:30:13.304Z,1.60
2019-03-10T12:31:13.151Z,1.70
2019-03-10T12:32:13.138Z,1.50
2019-03-10T12:33:13.171Z,1.80
2019-03-10T12:34:13.143Z,2.00
2019-03-10T12:35:13.109Z,1.80
2019-03-10T12:36:13.127Z,1.70
2019-03-10T12:37:13.082Z,1.90
2019-03-10T12:38:13.106Z,1.80
2019-03-10T12:39:13.069Z,1.60
2019-03-10T12:40:13.123Z,1.50
2019-03-10T12:41:13.080Z,1.90
2019-03-10T12:42:13.085Z,1.50
2019-03-10T12:43:13.033Z,1.70
2019-03-10T12:44:13.029Z,1.60
2019-03-10T12:45:12.999Z,1.50
2019-03-10T12:46:13.002Z,1.40
2019-03-10T12:47:12.987Z,1.60
2019-03-10T12:48:13.009Z,1.60
2019-03-10T12:49:12.958Z,1.40
2019-03-10T12:50:12.955Z,1.50
2019-03-10T12:51:12.946Z,1.50
2019-03-10T12:52:12.931Z,1.40
2019-03-10T12:53:12.940Z,1.30
2019-03-10T12:54:12.913Z,1.30
2019-03-10T12:55:12.895Z,1.30
2019-03-10T12:56:12.893Z,1.40
2019-03-10T12:57:12.869Z,1.20
2019-03-10T12:58:12.894Z,1.00
2019-03-10T12:59:12.848Z,1.10
2019-03-10T13:00:13.548Z,1.20
2019-03-10T13:01:12.840Z,1.30
2019-03-10T13:02:12.821Z,1.40
2019-03-10T13:03:12.814Z,1.40
2019-03-10T13:04:12.827Z,1.70
2019-03-10T13:05:12.786Z,1.40
2019-03-10T13:06:12.772Z,1.10
2019-03-10T13:07:12.756Z,1.40
2019-03-10T13:08:12.744Z,1.30
2019-03-10T13:09:12.766Z,1.40
2019-03-10T13:10:12.950Z,1.40
2019-03-10T13:11:12.711Z,1.40
2019-03-10T13:12:12.713Z,1.40
2019-03-10T13:13:12.704Z,1.80
2019-03-10T13:14:12.717Z,1.60
2019-03-10T13:15:12.675Z,1.60
2019-03-10T13:16:12.674Z,1.50
2019-03-10T13:17:12.646Z,1.60
2019-03-10T13:18:12.652Z,1.60